Reinbeck, IA (50669)

12:57 AM CST on November 24, 2014 (GMT -0600)
Scout Creek | Change Station
CLOSE
Current Station
Personal Weather Station
Location: Reinbeck, IA
Elevation: 942 ft
Nearby Weather Stations
Active Advisory: Special Statement

Elev 942 ft 42.34 °N, 92.55 °W | Updated 6 minutes ago

Snow
Snow
32.0 °F
Feels Like 20 °F
N
19.1
Wind Variable Wind from NW

Today
High -- | Low -- °F
--% Chance of Precip.
Yesterday
High -- | Low -- °F
Precip. -- in
7:11 AM 4:41 PM
Waxing Crescent, 4% visible
Pressure 29.26 in
Visibility 1.2 miles
Clouds Mostly Cloudy 800 ft
Mostly Cloudy 1400 ft
Overcast 2300 ft
Windchill 20 °F
Dew Point 32 °F
Humidity 99%
Rainfall 0.00 in
Snow Depth Not available.
UV 0 out of 12
Pollen .10 out of 12
Air Quality Not available.
Flu Activity Not available.
SPECI KALO 240650Z AUTO 31018G26KT 1 1/4SM -SN BR BKN008 BKN014 OVC023 00/M01 A2926 RMK AO2 PK WND 32032/0612 RAE21SNB21 P0007 $

More Conditions Fewer Conditions

Pressure 29.26 in
Visibility 1.2 miles
Clouds Mostly Cloudy 800 ft
Mostly Cloudy 1400 ft
Overcast 2300 ft
Windchill 20 °F
Dew Point 32 °F
Humidity 99%
Rainfall 0.00 in
Snow Depth Not available.
UV 0 out of 12
Pollen .10 out of 12
Air Quality Not available.
Flu Activity Not available.
SPECI KALO 240650Z AUTO 31018G26KT 1 1/4SM -SN BR BKN008 BKN014 OVC023 00/M01 A2926 RMK AO2 PK WND 32032/0612 RAE21SNB21 P0007 $

More Conditions Fewer Conditions

10-Day Weather Forecast

Almanac

Astronomy

Nov. 24, 2014 Rise Set
Actual Time
Civil Twilight
Nautical Twilight
Astronomical Twilight
Moon
Length of Visible Light
Length of Day
Tomorrow will be .
, % of the Moon is Illuminated

Today's Extremes

State Highs State Lows

Community

WunderPhotos

Upload Photos

1,773,294 photos uploaded!

WunderBlogs® & News

Nearby

Air Quality

  Air Quality AQ Index Pollutant
Not available.

Snow Depth

Station Depth Elevation

Earthquake Activity

City Distance Mag. Time & Date
Minimum magnitude displayed is 2.5.

Coastal Water Temperatures

Place Temperature

Nearby Weather Stations